Fort Lauderdale Hollywood International Airport
KFLL : now visible

Airfield :











YOU CAN JOIN US ON...

 
LOGIN :

Register | Disclaimer

   EN    FR    IT 

 









Legend :    VFR   Marginal VFR   IFR   Intensive IFR   Very Intensive IFR
Visi :
Ceiling :
>= 8 km
>= 3000ft
5 to 8 km
1000 to 3000 ft
1500m to 5 km
500 to 1000 ft
800 to 1500m
200 to 500 ft
< 800m
< 200 ft
Symbols :   Thunderstorms  Fog  Heavy snow  Heavy precipitations  Wind > 20 kt






- Airport Elevation : 9 ft
- IATA code : FLL


KFLL - Fort Lauderdale Hollywood International

CURRENT METAR :
  • 041953Z 18004KT 10SM R10L/2400VP6000FT FEW025 FEW075 SCT110 BKN150 BKN250 31/27 A2996 RMK AO2 SLP145 T03060267

EXPIRED METARs :
  • 041853Z 00000KT 10SM FEW025 SCT075 SCT110 BKN150 BKN250 27/25 A2998 RMK AO2 LTG DSNT SW RAE41 TSE31 SLP151 CB DSNT W MOV N P0008 T02720250
  • 041831Z 00000KT 10SM -RA SCT025 BKN075 BKN110 BKN150 BKN250 26/25 A2999 RMK AO2 LTG DSNT SW AND W TSE31 OCNL LTGICCG DSNT W-NW CB DSNT W-NW MOV N P0008 T02610250
  • 041740Z 34007G28KT 6SM R10L/1200V3000FT TS BR FEW013 BKN025CB BKN040 25/23 A3001 RMK AO2 PK WND 28033/1725 WSHFT 1706 LTG DSNT SW-N RAEMMB36E40 VIS NW-N 1 CONS LTGICCG OHD-SW-W-N TS OHD-SW-W-N MOV N P0111 T02500233 $

TAF COR TAF KFLL
Valid from the 04 at 18:00 until the 06 at 00:00 UTC


041723Z 0418/0524 15010KT P6SM VCTS SCT025CB BKN040
TEMPO 0418/0421 VRB20G30KT 2SM +TSRA BKN025CB
FM050300 VRB05KT P6SM FEW030 SCT060
FM051500 14010KT P6SM VCTS SCT025CB BKN060
KZMA FIR / North America



MET'MAP, your aeronautical weather chart ! - Copyright ORBIFLY December 2007 - Disclaimer

ORBIFLY MET'MAP TEAM :

Programming & Development : Alexandra Zaïnal
Concept & original design : Baudouin d'Aumeries
Assistance for programming : Marc-Olivier Méhu
Technical & hardware support : Manuel Goepfert

Contact : metmap@orbifly.com




SOURCES & CREDITS :

   NOAA       Earth
Advisory